Time;durP1;ratioP1;P1;durP2;ratioP2;P2;SDS_P1;SDS_P2;PMS_P1;PMS_P2;Temp;Humidity;BMP_temperature;BMP_pressure;BME280_temperature;BME280_humidity;BME280_pressure;Samples;Min_cycle;Max_cycle;Signal;HPM_P1;HPM_P2
2022/06/29 00:02:06;;;;;;;0.70;0.10;;;21.80;99.90;;;;;;5014240;28;20559;-66
2022/06/29 00:04:33;;;;;;;0.70;0.10;;;21.80;99.90;;;;;;5014112;28;20440;-68
2022/06/29 00:07:01;;;;;;;0.70;0.20;;;21.80;99.90;;;;;;5013512;28;20869;-68
2022/06/29 00:09:31;;;;;;;0.70;0.20;;;21.80;99.90;;;;;;5013376;28;20463;-68
2022/06/29 00:11:58;;;;;;;0.70;0.20;;;21.80;99.90;;;;;;5013568;28;20511;-68
2022/06/29 00:14:26;;;;;;;0.70;0.20;;;21.80;99.90;;;;;;5013664;28;20488;-68
2022/06/29 00:16:54;;;;;;;0.70;0.10;;;21.80;99.90;;;;;;5013572;28;20450;-69
2022/06/29 00:19:22;;;;;;;0.70;0.20;;;21.80;99.90;;;;;;5014673;28;20453;-67
2022/06/29 00:21:50;;;;;;;0.70;0.20;;;21.80;99.90;;;;;;5016020;28;21244;-67
2022/06/29 00:24:18;;;;;;;0.70;0.10;;;21.80;99.90;;;;;;5014922;28;20448;-68
2022/06/29 00:26:47;;;;;;;0.70;0.10;;;21.70;99.90;;;;;;5015315;28;20946;-68
2022/06/29 00:29:15;;;;;;;0.70;0.10;;;21.70;99.90;;;;;;5015430;28;20448;-69
2022/06/29 00:31:43;;;;;;;0.70;0.10;;;21.60;99.90;;;;;;5012235;28;20468;-66
2022/06/29 00:34:11;;;;;;;0.70;0.10;;;21.60;99.90;;;;;;5010012;28;20496;-70
2022/06/29 00:36:38;;;;;;;0.70;0.20;;;21.60;99.90;;;;;;5011623;28;20453;-67
2022/06/29 00:39:06;;;;;;;0.70;0.10;;;21.70;99.90;;;;;;5011755;28;20456;-67
2022/06/29 00:41:38;;;;;;;0.70;0.10;;;21.60;99.90;;;;;;5012807;28;20478;-67
2022/06/29 00:44:09;;;;;;;0.70;0.10;;;21.60;99.90;;;;;;5012977;28;20484;-67
2022/06/29 00:46:41;;;;;;;0.67;0.13;;;21.60;99.90;;;;;;5012785;28;20447;-68
2022/06/29 00:49:10;;;;;;;0.70;0.13;;;21.60;99.90;;;;;;5012772;28;20459;-68
2022/06/29 00:51:38;;;;;;;0.70;0.10;;;21.60;99.90;;;;;;5013120;28;20480;-67
2022/06/29 00:54:07;;;;;;;0.70;0.20;;;21.60;99.90;;;;;;5012596;28;20539;-68
2022/06/29 00:56:36;;;;;;;0.70;0.10;;;21.60;99.90;;;;;;5012460;28;20501;-68
2022/06/29 00:59:05;;;;;;;0.70;0.10;;;21.60;99.90;;;;;;5012381;28;20452;-68
2022/06/29 01:01:36;;;;;;;2.10;1.63;;;21.50;99.90;;;;;;5012570;28;20554;-67
2022/06/29 01:04:06;;;;;;;0.70;0.10;;;21.50;99.90;;;;;;5012818;28;20475;-67
2022/06/29 01:06:35;;;;;;;0.70;0.10;;;21.50;99.90;;;;;;5012202;28;20555;-68
2022/06/29 01:09:04;;;;;;;0.70;0.20;;;21.50;99.90;;;;;;5012596;28;20490;-69
2022/06/29 01:11:33;;;;;;;0.80;0.20;;;21.50;99.90;;;;;;5012411;28;20444;-68
2022/06/29 01:14:01;;;;;;;0.70;0.10;;;21.50;99.90;;;;;;5012527;28;20484;-67
2022/06/29 01:16:29;;;;;;;0.70;0.10;;;21.50;99.90;;;;;;5012214;28;20522;-68
2022/06/29 01:18:59;;;;;;;0.70;0.20;;;21.50;99.90;;;;;;5012123;28;20977;-68
2022/06/29 01:21:31;;;;;;;0.70;0.10;;;21.50;99.90;;;;;;5012796;28;20440;-68
2022/06/29 01:24:00;;;;;;;0.70;0.10;;;21.50;99.90;;;;;;5012488;28;20452;-68
2022/06/29 01:26:28;;;;;;;0.60;0.10;;;21.50;99.90;;;;;;5013529;28;20444;-69
2022/06/29 01:28:56;;;;;;;0.70;0.10;;;21.50;99.90;;;;;;5012781;28;21017;-68
2022/06/29 01:31:23;;;;;;;0.70;0.10;;;21.50;99.90;;;;;;5012545;28;21051;-68
2022/06/29 01:33:51;;;;;;;0.70;0.10;;;21.50;99.90;;;;;;5012469;28;20955;-68
2022/06/29 01:36:19;;;;;;;0.70;0.10;;;21.50;99.90;;;;;;5011674;28;20482;-67
2022/06/29 01:38:47;;;;;;;0.60;0.10;;;21.50;99.90;;;;;;5012133;28;20448;-68
2022/06/29 01:41:17;;;;;;;0.70;0.10;;;;;;;;;;5011879;28;20448;-67
2022/06/29 01:43:45;;;;;;;0.70;0.20;;;21.40;99.90;;;;;;5012688;28;20448;-67
2022/06/29 01:46:14;;;;;;;0.70;0.20;;;21.40;99.90;;;;;;5011835;28;20448;-69
2022/06/29 01:48:42;;;;;;;0.67;0.10;;;21.30;99.90;;;;;;5012527;28;20444;-68
2022/06/29 01:51:10;;;;;;;0.70;0.10;;;21.30;99.90;;;;;;5012244;28;20459;-68
2022/06/29 01:53:38;;;;;;;3.17;1.23;;;21.30;99.90;;;;;;5011582;28;20471;-68
2022/06/29 01:56:07;;;;;;;0.70;0.20;;;21.30;99.90;;;;;;5011457;28;20523;-66
2022/06/29 01:58:36;;;;;;;0.70;0.20;;;21.20;99.90;;;;;;5012683;28;20444;-69
2022/06/29 02:01:04;;;;;;;0.70;0.20;;;21.20;99.90;;;;;;5012289;28;20448;-69
2022/06/29 02:03:32;;;;;;;0.70;0.20;;;21.20;99.90;;;;;;5012529;28;20468;-68
2022/06/29 02:05:59;;;;;;;1.37;1.27;;;21.20;99.90;;;;;;5012055;28;20453;-67
2022/06/29 02:08:27;;;;;;;0.70;0.10;;;21.20;99.90;;;;;;5011476;28;20922;-66
2022/06/29 02:10:55;;;;;;;0.70;0.10;;;21.10;99.90;;;;;;5011684;28;21011;-66
2022/06/29 02:13:23;;;;;;;0.70;0.20;;;21.20;99.90;;;;;;5011846;28;20482;-68
2022/06/29 02:15:52;;;;;;;0.70;0.10;;;21.20;99.90;;;;;;5012091;28;20480;-68
2022/06/29 02:18:20;;;;;;;0.70;0.20;;;21.20;99.90;;;;;;5011414;28;20457;-68
2022/06/29 02:20:48;;;;;;;0.70;0.10;;;21.20;99.90;;;;;;5011786;28;20842;-67
2022/06/29 02:23:16;;;;;;;0.60;0.10;;;21.20;99.90;;;;;;5011953;28;20464;-67
2022/06/29 02:25:44;;;;;;;0.70;0.20;;;21.20;99.90;;;;;;5011781;28;20440;-67
2022/06/29 02:28:12;;;;;;;0.60;0.10;;;21.20;99.90;;;;;;5011709;28;20452;-67
2022/06/29 02:36:09;;;;;;;0.60;0.10;;;21.20;99.90;;;;;;5010754;28;20476;-68
2022/06/29 02:38:37;;;;;;;0.70;0.10;;;21.10;99.90;;;;;;5010636;28;20957;-67
2022/06/29 02:41:05;;;;;;;0.70;0.10;;;21.10;99.90;;;;;;5011001;28;20448;-67
2022/06/29 02:43:33;;;;;;;0.67;0.30;;;21.10;99.90;;;;;;5011273;28;20495;-67
2022/06/29 02:46:00;;;;;;;0.70;0.10;;;21.10;99.90;;;;;;5011841;28;20448;-67
2022/06/29 02:48:32;;;;;;;0.63;0.10;;;21.10;99.90;;;;;;5014585;28;20495;-69
2022/06/29 02:51:00;;;;;;;0.70;0.10;;;21.10;99.90;;;;;;5015282;28;20459;-68
2022/06/29 02:53:28;;;;;;;0.70;0.10;;;21.10;99.90;;;;;;5015090;28;20514;-67
2022/06/29 02:55:56;;;;;;;0.70;0.10;;;21.00;99.90;;;;;;5015205;28;20538;-68
2022/06/29 02:58:24;;;;;;;0.60;0.10;;;21.50;99.90;;;;;;5014647;28;20483;-68
2022/06/29 03:00:52;;;;;;;0.70;0.10;;;21.00;99.90;;;;;;5014777;28;20452;-68
2022/06/29 03:03:20;;;;;;;0.70;0.30;;;21.00;99.90;;;;;;5014942;28;20827;-67
2022/06/29 03:05:49;;;;;;;0.60;0.10;;;21.00;99.90;;;;;;5014648;28;20444;-67
2022/06/29 03:08:17;;;;;;;0.70;0.10;;;21.00;99.90;;;;;;5014422;28;20455;-67
2022/06/29 03:10:45;;;;;;;0.70;0.20;;;21.00;99.90;;;;;;5014455;28;20475;-67
2022/06/29 03:13:13;;;;;;;0.67;0.20;;;21.00;99.90;;;;;;5014484;28;20555;-68
2022/06/29 03:15:41;;;;;;;0.60;0.10;;;21.00;99.90;;;;;;5014375;28;20480;-70
2022/06/29 03:18:09;;;;;;;0.70;0.20;;;21.00;99.90;;;;;;5013919;28;20456;-69
2022/06/29 03:20:36;;;;;;;0.70;0.20;;;21.00;99.90;;;;;;5014113;28;20466;-69
2022/06/29 03:23:06;;;;;;;0.60;0.10;;;21.00;99.90;;;;;;5014309;28;20818;-67
2022/06/29 03:25:35;;;;;;;0.70;0.20;;;21.00;99.90;;;;;;5014381;28;20563;-67
2022/06/29 03:28:02;;;;;;;0.60;0.10;;;21.00;99.90;;;;;;5013999;28;20539;-69
2022/06/29 03:30:30;;;;;;;0.63;0.10;;;21.00;99.90;;;;;;5013997;28;20947;-69
2022/06/29 03:32:58;;;;;;;0.60;0.10;;;21.00;99.90;;;;;;5014498;28;20559;-68
2022/06/29 03:35:26;;;;;;;0.60;0.10;;;21.00;99.90;;;;;;5014527;28;20499;-68
2022/06/29 03:37:54;;;;;;;0.60;0.10;;;21.00;99.90;;;;;;5014263;28;20480;-69
2022/06/29 03:40:23;;;;;;;0.70;0.10;;;21.00;99.90;;;;;;5014973;28;20502;-69
2022/06/29 03:42:52;;;;;;;0.70;0.20;;;21.00;99.90;;;;;;5014467;28;20468;-66
2022/06/29 03:45:20;;;;;;;0.70;0.10;;;21.00;99.90;;;;;;5014247;28;20451;-68
2022/06/29 03:47:48;;;;;;;0.60;0.10;;;21.00;99.90;;;;;;5013672;28;20444;-68
2022/06/29 03:50:16;;;;;;;0.60;0.10;;;21.00;99.90;;;;;;5013728;28;20471;-67
2022/06/29 03:52:44;;;;;;;0.70;0.10;;;21.00;99.90;;;;;;5013741;28;21029;-66
2022/06/29 03:55:12;;;;;;;0.60;0.10;;;21.00;99.90;;;;;;5014030;28;20828;-68
2022/06/29 03:57:41;;;;;;;0.60;0.20;;;21.00;99.90;;;;;;5013478;28;20480;-69
2022/06/29 04:00:10;;;;;;;0.60;0.10;;;21.00;99.90;;;;;;5014553;28;20452;-68
2022/06/29 04:02:39;;;;;;;0.60;0.10;;;21.00;99.90;;;;;;5014792;28;20463;-67
2022/06/29 04:05:07;;;;;;;0.60;0.10;;;21.00;99.90;;;;;;5014328;28;20455;-69
2022/06/29 04:07:36;;;;;;;0.60;0.20;;;21.00;99.90;;;;;;5014983;28;20501;-67
2022/06/29 04:10:05;;;;;;;0.60;0.20;;;21.00;99.90;;;;;;4995771;28;20449;-67
2022/06/29 04:12:35;;;;;;;0.60;0.10;;;21.00;99.90;;;;;;5009149;23;21029;-70
2022/06/29 04:15:07;;;;;;;0.60;0.10;;;21.00;99.90;;;;;;4973857;28;20450;-71
2022/06/29 04:17:35;;;;;;;0.70;0.37;;;21.10;99.90;;;;;;4963502;28;20478;-70
2022/06/29 04:20:03;;;;;;;0.70;0.20;;;21.10;99.90;;;;;;4972993;28;20450;-70
2022/06/29 04:22:31;;;;;;;0.70;0.10;;;21.10;99.90;;;;;;4973970;28;20473;-70
2022/06/29 04:24:59;;;;;;;0.60;0.10;;;21.10;99.90;;;;;;4960463;28;20443;-71
2022/06/29 04:27:27;;;;;;;0.60;0.10;;;21.10;99.90;;;;;;4973271;28;20533;-70
2022/06/29 04:29:55;;;;;;;0.60;0.13;;;21.10;99.90;;;;;;4973678;28;20450;-70
2022/06/29 04:32:24;;;;;;;0.70;0.10;;;21.10;99.90;;;;;;4967875;28;20478;-70
2022/06/29 04:34:52;;;;;;;0.60;0.10;;;21.10;99.90;;;;;;4970075;28;20470;-70
2022/06/29 04:37:20;;;;;;;0.60;0.10;;;21.10;99.90;;;;;;4980255;28;20477;-70
2022/06/29 04:39:47;;;;;;;0.60;0.10;;;21.10;99.90;;;;;;4973633;28;20458;-70
2022/06/29 04:42:15;;;;;;;0.60;0.10;;;21.10;99.90;;;;;;4973854;28;20796;-70
2022/06/29 04:44:45;;;;;;;0.60;0.10;;;21.10;99.90;;;;;;4981921;28;20457;-70
2022/06/29 04:47:13;;;;;;;0.60;0.10;;;;;;;;;;4973968;28;20450;-71
2022/06/29 04:49:42;;;;;;;0.60;0.10;;;21.20;99.90;;;;;;4974373;28;20505;-71
2022/06/29 04:52:10;;;;;;;0.60;0.10;;;21.20;99.90;;;;;;4972390;28;20462;-70
2022/06/29 04:54:38;;;;;;;0.70;0.20;;;21.20;99.90;;;;;;4980093;28;20806;-71
2022/06/29 04:57:06;;;;;;;0.60;0.20;;;21.10;99.90;;;;;;4981494;28;20474;-71
2022/06/29 04:59:34;;;;;;;0.70;0.20;;;21.20;99.90;;;;;;4973695;28;20446;-70
2022/06/29 05:02:02;;;;;;;0.60;0.10;;;21.20;99.90;;;;;;4973563;28;20454;-70
2022/06/29 05:04:30;;;;;;;0.70;0.20;;;21.20;99.90;;;;;;4974112;28;20458;-72
2022/06/29 05:07:00;;;;;;;0.70;0.20;;;21.20;99.90;;;;;;4973001;28;20446;-70
2022/06/29 05:09:28;;;;;;;0.60;0.20;;;21.20;99.90;;;;;;4953744;28;20481;-71
2022/06/29 05:11:55;;;;;;;0.60;0.10;;;21.10;99.90;;;;;;4960958;28;20449;-72
2022/06/29 05:14:23;;;;;;;0.60;0.10;;;21.10;99.90;;;;;;4976629;28;20448;-70
2022/06/29 05:16:51;;;;;;;0.60;0.10;;;21.10;99.90;;;;;;4972115;28;21006;-68
2022/06/29 05:19:19;;;;;;;0.60;0.10;;;21.00;99.90;;;;;;4972487;28;20537;-70
2022/06/29 05:21:47;;;;;;;3.10;1.23;;;21.00;99.90;;;;;;4972433;28;20937;-71
2022/06/29 05:24:16;;;;;;;0.60;0.10;;;21.00;99.90;;;;;;4973005;28;20450;-70
2022/06/29 05:26:44;;;;;;;7.03;0.80;;;21.00;99.90;;;;;;4965025;28;20641;-69
2022/06/29 05:29:12;;;;;;;0.87;0.20;;;20.90;99.90;;;;;;4972812;28;20458;-68
2022/06/29 05:31:39;;;;;;;0.60;0.10;;;20.90;99.90;;;;;;4972635;28;20814;-70
2022/06/29 05:34:07;;;;;;;0.60;0.10;;;21.00;99.90;;;;;;4972091;28;20517;-70
2022/06/29 05:36:35;;;;;;;0.60;0.10;;;21.10;99.90;;;;;;4970582;28;20979;-70
2022/06/29 05:39:03;;;;;;;0.60;0.10;;;21.20;99.90;;;;;;4966806;28;20497;-69
2022/06/29 05:41:32;;;;;;;0.60;0.20;;;21.30;99.90;;;;;;4980604;28;20540;-68
2022/06/29 05:44:02;;;;;;;0.60;0.20;;;21.30;99.90;;;;;;4978943;28;20509;-67
2022/06/29 05:46:30;;;;;;;0.60;0.10;;;21.30;99.90;;;;;;4962573;28;20467;-68
2022/06/29 05:48:59;;;;;;;0.60;0.20;;;21.40;99.90;;;;;;4972151;28;20435;-68
2022/06/29 05:51:26;;;;;;;0.70;0.10;;;21.50;99.90;;;;;;4972089;28;20454;-67
2022/06/29 05:53:54;;;;;;;0.70;0.10;;;21.50;99.90;;;;;;4972085;28;20474;-68
2022/06/29 05:56:23;;;;;;;0.60;0.10;;;21.60;99.90;;;;;;4969212;28;20493;-67
2022/06/29 05:58:52;;;;;;;0.60;0.10;;;21.60;99.90;;;;;;4982521;28;20509;-67
2022/06/29 06:01:20;;;;;;;0.70;0.20;;;21.70;99.90;;;;;;4989259;28;20449;-67
2022/06/29 06:03:48;;;;;;;0.70;0.10;;;21.70;99.90;;;;;;4977407;28;20506;-67
2022/06/29 06:06:16;;;;;;;0.70;0.10;;;21.70;99.90;;;;;;4971812;28;20469;-67
2022/06/29 06:08:43;;;;;;;0.70;0.17;;;21.80;99.90;;;;;;4972387;28;20434;-67
2022/06/29 06:11:11;;;;;;;0.70;0.10;;;21.90;99.90;;;;;;4972115;28;20450;-67
2022/06/29 06:13:39;;;;;;;0.70;0.10;;;21.90;99.90;;;;;;4972214;28;20478;-67
2022/06/29 06:16:09;;;;;;;0.70;0.17;;;22.00;99.90;;;;;;4985182;28;20467;-68
2022/06/29 06:18:57;;;;;;;0.60;0.10;;;22.10;99.90;;;;;;4991622;28;20481;-68
2022/06/29 06:21:25;;;;;;;0.70;0.10;;;22.10;99.90;;;;;;4994300;28;20818;-68
2022/06/29 06:23:53;;;;;;;0.70;0.10;;;22.20;99.90;;;;;;4995779;28;20465;-68
2022/06/29 06:26:20;;;;;;;0.63;0.10;;;22.10;99.90;;;;;;4978790;28;20897;-69
2022/06/29 06:28:50;;;;;;;0.70;0.20;;;22.10;99.90;;;;;;4976018;28;20945;-68
2022/06/29 06:31:25;;;;;;;0.70;0.10;;;22.20;99.90;;;;;;4976895;28;20443;-67
2022/06/29 06:33:53;;;;;;;0.70;0.10;;;22.20;99.90;;;;;;4995536;28;20935;-68
2022/06/29 06:36:21;;;;;;;0.70;0.20;;;22.30;99.90;;;;;;4995534;28;20444;-66
2022/06/29 06:38:49;;;;;;;0.70;0.10;;;22.40;99.90;;;;;;4995640;28;20493;-67
2022/06/29 06:41:21;;;;;;;0.70;0.20;;;22.50;99.90;;;;;;4995461;28;20445;-66
2022/06/29 06:43:49;;;;;;;0.70;0.10;;;22.50;99.90;;;;;;4995512;28;20830;-68
2022/06/29 06:46:17;;;;;;;0.70;0.10;;;22.50;99.90;;;;;;4994770;28;20818;-68
2022/06/29 06:48:48;;;;;;;0.70;0.10;;;22.50;99.90;;;;;;4993867;28;20532;-68
2022/06/29 06:51:17;;;;;;;0.70;0.20;;;22.50;99.90;;;;;;4995364;28;20467;-67
2022/06/29 06:53:45;;;;;;;0.70;0.10;;;22.50;99.90;;;;;;4995095;28;20465;-68
2022/06/29 06:56:14;;;;;;;0.70;0.13;;;22.60;99.90;;;;;;4979182;28;20461;-68
2022/06/29 06:58:42;;;;;;;0.70;0.20;;;22.70;99.90;;;;;;4975106;28;20484;-67
2022/06/29 07:01:18;;;;;;;0.70;0.10;;;22.70;99.90;;;;;;4975437;28;21011;-68
2022/06/29 07:03:47;;;;;;;0.70;0.10;;;22.70;99.90;;;;;;4974309;28;20499;-68
2022/06/29 07:06:15;;;;;;;0.70;0.10;;;22.80;99.90;;;;;;4976047;28;20449;-67
2022/06/29 07:08:44;;;;;;;0.70;0.10;;;22.80;99.90;;;;;;4975599;28;21131;-68
2022/06/29 07:11:13;;;;;;;0.70;0.10;;;22.80;99.90;;;;;;4975267;28;20775;-67
2022/06/29 07:13:40;;;;;;;0.70;0.10;;;22.80;99.90;;;;;;4975606;28;20853;-67
2022/06/29 07:16:09;;;;;;;1.03;0.93;;;;;;;;;;4974660;28;20446;-67
2022/06/29 07:18:37;;;;;;;0.70;0.20;;;22.90;99.90;;;;;;4975131;28;20970;-69
2022/06/29 07:21:07;;;;;;;0.83;0.37;;;22.90;99.90;;;;;;4975288;28;20447;-67
2022/06/29 07:23:35;;;;;;;0.70;0.10;;;23.00;99.90;;;;;;4986392;28;20482;-67
2022/06/29 07:26:03;;;;;;;0.70;0.13;;;23.00;99.90;;;;;;4994513;28;20452;-67
2022/06/29 07:28:31;;;;;;;0.70;0.30;;;23.00;99.90;;;;;;4980660;28;20438;-68
2022/06/29 07:30:59;;;;;;;0.70;0.13;;;23.10;99.90;;;;;;4981653;28;20446;-67
2022/06/29 07:33:27;;;;;;;0.70;0.10;;;23.20;99.90;;;;;;4993790;28;20523;-67
2022/06/29 07:35:55;;;;;;;0.70;0.10;;;23.30;99.90;;;;;;4994601;28;20819;-67
2022/06/29 07:38:24;;;;;;;0.70;0.10;;;23.40;99.90;;;;;;4993850;28;20481;-67
2022/06/29 07:40:52;;;;;;;0.70;0.10;;;23.50;99.90;;;;;;4994385;28;20449;-69
2022/06/29 07:43:20;;;;;;;0.70;0.10;;;23.60;99.90;;;;;;4994147;28;20469;-68
2022/06/29 07:45:48;;;;;;;0.70;0.10;;;23.70;99.90;;;;;;4983244;28;20462;-69
2022/06/29 07:48:16;;;;;;;0.70;0.10;;;23.80;99.90;;;;;;4974750;28;20453;-68
2022/06/29 07:50:44;;;;;;;0.70;0.20;;;23.80;99.90;;;;;;4974916;28;20753;-68
2022/06/29 07:53:12;;;;;;;0.70;0.20;;;23.90;99.90;;;;;;4974716;28;20954;-67
2022/06/29 07:55:44;;;;;;;0.70;0.20;;;23.90;99.90;;;;;;4974428;28;20438;-67
2022/06/29 07:58:13;;;;;;;0.70;0.20;;;24.00;99.90;;;;;;4974109;28;20573;-68
2022/06/29 08:00:41;;;;;;;0.70;0.10;;;24.10;99.90;;;;;;4974756;28;20959;-69
2022/06/29 08:03:09;;;;;;;1.50;0.83;;;24.20;99.90;;;;;;4974181;28;20470;-67
2022/06/29 08:05:38;;;;;;;0.70;0.20;;;24.20;99.90;;;;;;4973626;28;20481;-68
2022/06/29 08:08:06;;;;;;;0.70;0.10;;;24.20;99.90;;;;;;4974173;28;20450;-67
2022/06/29 08:10:34;;;;;;;0.70;0.20;;;24.20;99.90;;;;;;4974519;28;20453;-67
2022/06/29 08:13:04;;;;;;;0.70;0.10;;;24.40;99.90;;;;;;4968035;28;20498;-67
2022/06/29 08:15:32;;;;;;;0.70;0.10;;;24.50;99.90;;;;;;4974056;28;20453;-67
2022/06/29 08:18:00;;;;;;;0.70;0.10;;;24.50;99.90;;;;;;4973905;28;20492;-68
2022/06/29 08:20:28;;;;;;;0.70;0.20;;;24.60;99.90;;;;;;4975206;28;20482;-68
2022/06/29 08:22:56;;;;;;;0.70;0.20;;;24.70;99.90;;;;;;4974036;28;20474;-67
2022/06/29 08:25:24;;;;;;;0.70;0.10;;;24.70;99.90;;;;;;4973791;28;20442;-68
2022/06/29 08:27:53;;;;;;;0.70;0.20;;;24.70;99.90;;;;;;4973546;28;20443;-67
2022/06/29 08:30:22;;;;;;;0.70;0.10;;;24.80;99.90;;;;;;4974069;28;20558;-68
2022/06/29 08:32:50;;;;;;;0.70;0.20;;;25.00;99.90;;;;;;4973810;28;20466;-68
2022/06/29 08:35:19;;;;;;;0.70;0.10;;;25.10;99.90;;;;;;4974548;28;20461;-67
2022/06/29 08:37:48;;;;;;;0.70;0.37;;;25.20;99.90;;;;;;4973480;28;20960;-68
2022/06/29 08:40:17;;;;;;;1.03;0.63;;;25.30;99.90;;;;;;4974234;28;20481;-68
2022/06/29 08:42:47;;;;;;;0.70;0.10;;;25.60;99.90;;;;;;4973686;28;20994;-68
2022/06/29 08:45:15;;;;;;;0.70;0.10;;;25.60;99.90;;;;;;4972479;28;20453;-67
2022/06/29 08:47:45;;;;;;;0.70;0.20;;;25.60;99.90;;;;;;4973208;28;20497;-67
2022/06/29 08:50:13;;;;;;;2.20;0.93;;;25.80;99.90;;;;;;4973513;28;20832;-69
2022/06/29 08:52:43;;;;;;;0.70;0.20;;;26.00;99.90;;;;;;4977932;28;20552;-69
2022/06/29 08:55:12;;;;;;;0.70;0.10;;;26.00;99.90;;;;;;4983724;28;20470;-68
2022/06/29 08:57:42;;;;;;;0.70;0.20;;;26.10;99.90;;;;;;4972966;28;20962;-67
2022/06/29 09:00:11;;;;;;;1.00;0.43;;;26.20;99.90;;;;;;4973400;28;20488;-68
2022/06/29 09:02:39;;;;;;;0.70;0.20;;;26.30;99.90;;;;;;4973162;28;20561;-68
2022/06/29 09:05:10;;;;;;;0.70;0.10;;;26.30;99.90;;;;;;4972806;28;20452;-68
2022/06/29 09:07:38;;;;;;;0.70;0.10;;;26.40;99.90;;;;;;4972724;28;20449;-68
2022/06/29 09:10:09;;;;;;;0.70;0.20;;;26.40;99.90;;;;;;4973488;28;20450;-68
2022/06/29 09:12:37;;;;;;;0.70;0.20;;;26.40;99.90;;;;;;4972462;28;20477;-68
2022/06/29 09:15:07;;;;;;;0.70;0.13;;;26.40;99.90;;;;;;4972254;28;20450;-68
2022/06/29 09:17:36;;;;;;;0.70;0.10;;;26.40;99.90;;;;;;4972520;28;20977;-68
2022/06/29 09:20:06;;;;;;;0.70;0.20;;;26.40;99.90;;;;;;4978621;28;20469;-68
2022/06/29 09:23:00;;;;;;;0.70;0.20;;;26.40;99.90;;;;;;4972284;28;20450;-68
2022/06/29 09:25:30;;;;;;;0.70;0.10;;;26.40;99.90;;;;;;4977875;28;20937;-68
2022/06/29 09:27:58;;;;;;;0.70;0.20;;;26.50;99.90;;;;;;4978275;28;20465;-69
2022/06/29 09:30:28;;;;;;;0.70;0.27;;;26.50;99.90;;;;;;4969616;28;20488;-68
2022/06/29 09:33:02;;;;;;;0.70;0.10;;;26.30;99.90;;;;;;4973186;28;20528;-68
2022/06/29 09:35:30;;;;;;;0.70;0.10;;;26.20;99.90;;;;;;4972762;28;20828;-67
2022/06/29 09:38:24;;;;;;;0.70;0.10;;;26.30;99.90;;;;;;4972533;28;20438;-68
2022/06/29 09:40:59;;;;;;;0.70;0.10;;;26.30;99.90;;;;;;4972757;28;20497;-68
2022/06/29 09:43:28;;;;;;;0.70;0.20;;;26.30;99.90;;;;;;4972325;28;20909;-68
2022/06/29 09:45:56;;;;;;;0.70;0.20;;;26.30;99.90;;;;;;4972918;28;20442;-68
2022/06/29 09:48:25;;;;;;;0.70;0.20;;;26.40;99.90;;;;;;4972784;28;20438;-69
2022/06/29 09:50:54;;;;;;;0.70;0.13;;;26.50;99.90;;;;;;4972736;28;20497;-68
2022/06/29 09:53:31;;;;;;;0.70;0.10;;;26.50;99.90;;;;;;4972672;28;20470;-68
2022/06/29 09:56:04;;;;;;;0.70;0.10;;;26.50;99.90;;;;;;4972427;28;20456;-68
2022/06/29 09:58:37;;;;;;;0.70;0.20;;;26.50;99.90;;;;;;4972564;28;20446;-68
2022/06/29 10:03:56;;;;;;;0.70;0.13;;;26.60;99.90;;;;;;4972140;28;20465;-68
2022/06/29 10:06:25;;;;;;;0.70;0.10;;;26.60;99.90;;;;;;4971254;28;20450;-68
2022/06/29 10:09:01;;;;;;;0.93;0.40;;;26.50;99.90;;;;;;4972219;28;20465;-67
2022/06/29 10:14:36;;;;;;;1.83;0.77;;;26.50;99.90;;;;;;5015116;23;20497;-65
2022/06/29 10:17:15;;;;;;;0.70;0.17;;;26.50;99.90;;;;;;4991572;28;20536;-66
2022/06/29 10:19:56;;;;;;;0.70;0.10;;;26.50;99.90;;;;;;4991473;28;20480;-65
2022/06/29 10:22:24;;;;;;;0.70;0.20;;;26.50;99.90;;;;;;4991763;28;20766;-65
2022/06/29 10:25:04;;;;;;;1.37;0.67;;;26.70;99.90;;;;;;5009666;28;20978;-67
2022/06/29 10:27:32;;;;;;;0.70;0.10;;;26.80;99.90;;;;;;5012804;28;20771;-66
2022/06/29 10:30:25;;;;;;;0.70;0.13;;;27.00;99.90;;;;;;5006560;28;20548;-66
2022/06/29 10:32:53;;;;;;;0.70;0.20;;;27.20;99.90;;;;;;4972909;28;20449;-64
2022/06/29 10:35:25;;;;;;;0.70;0.10;;;27.20;99.90;;;;;;5003919;28;20455;-66
2022/06/29 10:37:55;;;;;;;0.70;0.10;;;27.30;99.90;;;;;;5010986;28;20444;-64
2022/06/29 10:40:27;;;;;;;0.70;0.10;;;27.40;99.90;;;;;;5011176;28;20559;-67
2022/06/29 10:43:08;;;;;;;0.70;0.20;;;27.50;99.90;;;;;;5010776;28;20455;-67
2022/06/29 10:45:43;;;;;;;0.80;0.40;;;27.50;99.90;;;;;;5011001;28;20440;-65
2022/06/29 10:48:20;;;;;;;0.70;0.20;;;27.40;99.90;;;;;;5011114;28;20450;-65
2022/06/29 10:50:49;;;;;;;0.70;0.20;;;27.40;99.90;;;;;;4972452;28;20437;-69
2022/06/29 10:53:18;;;;;;;0.70;0.20;;;27.70;99.90;;;;;;4972201;28;20470;-66
2022/06/29 10:55:50;;;;;;;0.70;0.20;;;27.70;99.90;;;;;;4972669;28;20464;-65
2022/06/29 10:58:18;;;;;;;0.70;0.20;;;27.90;99.90;;;;;;4974067;28;20438;-64
2022/06/29 11:00:48;;;;;;;0.70;0.20;;;28.10;99.90;;;;;;4973616;28;20482;-64
2022/06/29 11:03:18;;;;;;;0.70;0.10;;;28.20;99.90;;;;;;4980047;28;20522;-66
2022/06/29 11:14:06;;;;;;;0.80;0.50;;;28.60;99.90;;;;;;4995406;28;20621;-67
2022/06/29 11:16:36;;;;;;;0.70;0.30;;;28.50;99.90;;;;;;4995452;28;20653;-65
2022/06/29 11:19:05;;;;;;;0.70;0.20;;;28.40;99.90;;;;;;4995324;28;20481;-69
2022/06/29 11:21:33;;;;;;;0.70;0.10;;;28.40;99.90;;;;;;4987921;28;20929;-67
2022/06/29 11:24:06;;;;;;;0.70;0.13;;;28.50;99.90;;;;;;4975927;28;20470;-65
2022/06/29 11:26:35;;;;;;;0.70;0.10;;;28.50;99.90;;;;;;4975476;28;20454;-66
2022/06/29 11:29:04;;;;;;;0.90;0.73;;;28.50;99.90;;;;;;4976045;28;20892;-66
2022/06/29 11:31:32;;;;;;;0.70;0.10;;;28.60;99.90;;;;;;4974859;28;20450;-65
2022/06/29 11:34:01;;;;;;;0.80;0.43;;;28.70;99.90;;;;;;4974826;28;20586;-65
2022/06/29 11:36:30;;;;;;;0.80;0.30;;;28.80;99.90;;;;;;4975091;28;20457;-67
2022/06/29 11:39:05;;;;;;;0.70;0.20;;;28.90;99.90;;;;;;4983324;28;20485;-66
2022/06/29 11:44:27;;;;;;;0.70;0.10;;;29.20;99.90;;;;;;4993149;28;21029;-67
2022/06/29 11:46:56;;;;;;;0.70;0.20;;;29.20;99.90;;;;;;4994584;28;20781;-66
2022/06/29 11:49:38;;;;;;;0.70;0.10;;;29.30;99.90;;;;;;4994544;28;20940;-67
2022/06/29 11:52:08;;;;;;;0.70;0.10;;;29.20;99.90;;;;;;4994683;28;20440;-66
2022/06/29 11:54:37;;;;;;;0.70;0.20;;;29.20;99.90;;;;;;4993487;28;20563;-66
2022/06/29 11:57:10;;;;;;;1.30;1.20;;;29.30;99.90;;;;;;4994166;28;20781;-65
2022/06/29 11:59:40;;;;;;;0.80;0.57;;;29.30;99.90;;;;;;4994366;28;20456;-66
2022/06/29 12:02:10;;;;;;;0.80;0.30;;;29.30;99.90;;;;;;4994495;28;21003;-66
2022/06/29 12:04:38;;;;;;;3.07;2.57;;;29.30;99.90;;;;;;4993616;28;20479;-69
2022/06/29 12:07:08;;;;;;;0.80;0.40;;;29.20;99.90;;;;;;4993957;28;20507;-67
2022/06/29 12:09:38;;;;;;;0.70;0.10;;;28.90;99.90;;;;;;4994363;28;20445;-66
2022/06/29 12:12:07;;;;;;;0.70;0.10;;;28.80;99.90;;;;;;4993806;28;20874;-65
2022/06/29 12:14:35;;;;;;;0.70;0.10;;;28.70;99.90;;;;;;4980680;28;20564;-67
2022/06/29 12:17:04;;;;;;;0.70;0.10;;;28.70;99.90;;;;;;4973647;28;20449;-66
2022/06/29 12:19:33;;;;;;;0.70;0.20;;;28.60;99.90;;;;;;4973811;28;20944;-67
2022/06/29 12:22:01;;;;;;;0.70;0.10;;;28.60;99.90;;;;;;4973957;28;20514;-67
2022/06/29 12:24:29;;;;;;;0.70;0.30;;;28.50;99.90;;;;;;4973827;28;20470;-69
2022/06/29 12:26:57;;;;;;;0.70;0.20;;;28.50;99.90;;;;;;4977771;28;20449;-67
2022/06/29 12:29:26;;;;;;;0.70;0.10;;;28.40;99.90;;;;;;4973822;28;20549;-66
2022/06/29 12:31:56;;;;;;;0.70;0.10;;;28.40;99.90;;;;;;4959850;28;20430;-67
2022/06/29 12:34:26;;;;;;;0.70;0.20;;;28.40;99.90;;;;;;4974152;28;20533;-64
2022/06/29 12:36:58;;;;;;;0.70;0.10;;;28.50;99.90;;;;;;4974046;28;20491;-66
2022/06/29 12:39:26;;;;;;;0.87;0.40;;;28.50;99.90;;;;;;4973946;28;20449;-67
2022/06/29 12:41:54;;;;;;;0.70;0.10;;;28.60;99.90;;;;;;4973716;28;20984;-67
2022/06/29 12:44:22;;;;;;;1.10;0.60;;;28.00;99.90;;;;;;4983134;28;20504;-65
2022/06/29 12:46:50;;;;;;;0.70;0.20;;;28.70;99.90;;;;;;4993000;28;20437;-68
2022/06/29 12:49:18;;;;;;;0.80;0.57;;;28.60;99.90;;;;;;4993130;28;20548;-65
2022/06/29 12:51:47;;;;;;;0.70;0.10;;;28.60;99.90;;;;;;4993053;28;20464;-66
2022/06/29 12:54:17;;;;;;;0.70;0.20;;;28.50;99.90;;;;;;4992793;28;20469;-65
2022/06/29 12:56:45;;;;;;;0.70;0.30;;;28.50;99.90;;;;;;4992462;28;20448;-68
2022/06/29 12:59:14;;;;;;;0.70;0.23;;;28.60;99.90;;;;;;4992762;28;20441;-67
2022/06/29 13:01:42;;;;;;;0.70;0.20;;;28.60;99.90;;;;;;4992783;28;20809;-66
2022/06/29 13:04:09;;;;;;;1.83;1.70;;;28.70;99.90;;;;;;4992481;28;20465;-68
2022/06/29 13:06:37;;;;;;;0.70;0.20;;;28.90;99.90;;;;;;4986376;28;20473;-65
2022/06/29 13:09:07;;;;;;;2.60;1.70;;;29.10;99.90;;;;;;4972760;28;20453;-66
2022/06/29 13:11:35;;;;;;;0.70;0.20;;;29.20;99.90;;;;;;4973365;28;20449;-66
2022/06/29 13:14:03;;;;;;;0.70;0.10;;;29.20;99.90;;;;;;4983074;28;20483;-66
2022/06/29 13:16:31;;;;;;;0.70;0.20;;;29.30;99.90;;;;;;4993118;28;20473;-66
2022/06/29 13:18:59;;;;;;;0.70;0.13;;;29.40;99.90;;;;;;4982069;28;20481;-66
2022/06/29 13:21:27;;;;;;;0.70;0.10;;;29.40;99.90;;;;;;4972759;28;20490;-67